Time;durP1;ratioP1;P1;durP2;ratioP2;P2;SDS_P1;SDS_P2;PMS_P1;PMS_P2;Temp;Humidity;BMP_temperature;BMP_pressure;BME280_temperature;BME280_humidity;BME280_pressure;Samples;Min_cycle;Max_cycle;Signal;HPM_P1;HPM_P2
2021/08/21 17:43:20;;;;;;;;;;;21.00;63.00;;;;;;5112873;27;19918;-87
2021/08/21 17:45:46;;;;;;;;;;;20.60;66.00;;;;;;5112134;28;19912;-88
2021/08/21 17:48:12;;;;;;;;;;;20.60;68.30;;;;;;5111885;28;19908;-89
2021/08/21 17:50:37;;;;;;;;;;;20.60;69.50;;;;;;5110710;28;20415;-88
2021/08/21 17:53:03;;;;;;;;;;;20.50;70.30;;;;;;5111096;28;19938;-89
2021/08/21 17:55:29;;;;;;;;;;;20.60;71.10;;;;;;5110263;28;19951;-89
2021/08/21 17:57:54;;;;;;;;;;;20.60;71.60;;;;;;5111421;28;19995;-88
2021/08/21 18:00:20;;;;;;;;;;;20.60;72.00;;;;;;5110541;28;19919;-88
2021/08/21 18:02:46;;;;;;;;;;;20.60;72.40;;;;;;5111596;28;19912;-89
2021/08/21 18:05:12;;;;;;;;;;;20.60;72.60;;;;;;5110394;28;19908;-89
2021/08/21 18:07:38;;;;;;;;;;;20.70;73.10;;;;;;5111695;28;19908;-89
2021/08/21 18:10:04;;;;;;;;;;;20.70;73.30;;;;;;5111643;28;20046;-90
2021/08/21 18:12:29;;;;;;;;;;;20.70;73.50;;;;;;5110287;28;19908;-88
2021/08/21 18:14:57;;;;;;;;;;;20.70;73.80;;;;;;5111536;28;19915;-89
2021/08/21 18:17:22;;;;;;;;;;;20.70;73.70;;;;;;5109743;28;19916;-88
2021/08/21 18:19:48;;;;;;;;;;;20.70;74.00;;;;;;5109717;28;19912;-89
2021/08/21 18:22:14;;;;;;;;;;;20.70;74.00;;;;;;5110916;28;19912;-88
2021/08/21 18:24:40;;;;;;;;;;;20.60;74.10;;;;;;5109808;28;19912;-88
2021/08/21 18:27:06;;;;;;;;;;;20.60;74.50;;;;;;5109675;28;19908;-89
2021/08/21 18:29:31;;;;;;;;;;;20.60;74.60;;;;;;5109591;28;20312;-88
2021/08/21 18:31:57;;;;;;;;;;;20.50;74.60;;;;;;5110823;28;19916;-89
2021/08/21 18:34:22;;;;;;;;;;;20.50;74.80;;;;;;5110939;28;19944;-89
2021/08/21 18:36:48;;;;;;;;;;;20.40;75.50;;;;;;5109821;28;19908;-89
2021/08/21 18:39:14;;;;;;;;;;;20.40;74.90;;;;;;5109825;28;19936;-90
2021/08/21 18:41:39;;;;;;;;;;;20.40;75.10;;;;;;5110754;28;20010;-89
2021/08/21 18:44:05;;;;;;;;;;;20.30;75.20;;;;;;5111291;28;19956;-89
2021/08/21 18:46:31;;;;;;;;;;;20.30;75.50;;;;;;5109634;28;20390;-89
2021/08/21 18:48:56;;;;;;;;;;;20.30;75.70;;;;;;5110974;28;19916;-89
2021/08/21 18:51:22;;;;;;;;;;;20.20;76.00;;;;;;5110860;28;20354;-89
2021/08/21 18:53:48;;;;;;;;;;;20.20;76.40;;;;;;5102156;28;20348;-90
2021/08/21 18:56:13;;;;;;;;;;;20.10;76.70;;;;;;5095924;28;19912;-89
2021/08/21 18:58:39;;;;;;;;;;;20.10;76.80;;;;;;5095860;28;19908;-89
2021/08/21 19:01:04;;;;;;;;;;;20.00;76.70;;;;;;5095839;28;19912;-89
2021/08/21 19:03:30;;;;;;;;;;;20.00;77.10;;;;;;5096995;28;19912;-89
2021/08/21 19:05:56;;;;;;;;;;;20.00;77.30;;;;;;5097054;28;20009;-90
2021/08/21 19:08:22;;;;;;;;;;;19.90;77.40;;;;;;5096917;28;20423;-89
2021/08/21 19:10:49;;;;;;;;;;;19.90;77.70;;;;;;5096924;28;20315;-88
2021/08/21 19:13:15;;;;;;;;;;;19.80;77.90;;;;;;5096819;28;19912;-90
2021/08/21 19:15:41;;;;;;;;;;;19.80;78.10;;;;;;5095528;28;19961;-88
2021/08/21 19:18:07;;;;;;;;;;;19.70;78.40;;;;;;5096769;28;19961;-88
2021/08/21 19:20:33;;;;;;;;;;;19.70;78.70;;;;;;5096976;28;19910;-89
2021/08/21 19:22:58;;;;;;;;;;;19.60;78.90;;;;;;5096986;28;19908;-90
2021/08/21 19:25:24;;;;;;;;;;;19.70;79.30;;;;;;5096888;28;20254;-90
2021/08/21 19:27:49;;;;;;;;;;;19.60;79.20;;;;;;5096386;28;19912;-89
2021/08/21 19:30:15;;;;;;;;;;;19.60;79.30;;;;;;5095238;28;20376;-87
2021/08/21 19:32:41;;;;;;;;;;;19.60;79.40;;;;;;5096409;28;19915;-88
2021/08/21 19:35:07;;;;;;;;;;;19.50;79.40;;;;;;5096426;28;20415;-90
2021/08/21 19:37:32;;;;;;;;;;;19.40;79.40;;;;;;5096324;28;20375;-88
2021/08/21 19:39:58;;;;;;;;;;;19.40;79.70;;;;;;5096357;28;19991;-88
2021/08/21 19:42:24;;;;;;;;;;;19.40;79.70;;;;;;5096068;28;20425;-89
2021/08/21 19:44:49;;;;;;;;;;;19.40;80.00;;;;;;5095007;28;19983;-90
2021/08/21 19:47:15;;;;;;;;;;;19.40;80.10;;;;;;5096135;28;19915;-90
2021/08/21 19:49:40;;;;;;;;;;;19.30;80.10;;;;;;5096461;28;19962;-89
2021/08/21 19:52:06;;;;;;;;;;;19.30;80.20;;;;;;5096303;28;19963;-88
2021/08/21 19:54:31;;;;;;;;;;;19.20;80.60;;;;;;5096083;28;19943;-89
2021/08/21 19:56:57;;;;;;;;;;;19.20;80.80;;;;;;5096047;28;19987;-89
2021/08/21 19:59:23;;;;;;;;;;;19.20;81.10;;;;;;5096304;28;19909;-91
2021/08/21 20:01:49;;;;;;;;;;;19.20;81.50;;;;;;5095974;28;20389;-91
2021/08/21 20:04:17;;;;;;;;;;;19.20;81.90;;;;;;5094278;28;20306;-91
2021/08/21 20:06:44;;;;;;;;;;;19.10;82.00;;;;;;5095583;28;19908;-91
2021/08/21 20:09:10;;;;;;;;;;;19.00;81.90;;;;;;5096085;28;19951;-89
2021/08/21 20:11:35;;;;;;;;;;;19.00;81.90;;;;;;5094381;28;19962;-90
2021/08/21 20:14:02;;;;;;;;;;;19.00;82.30;;;;;;5095685;28;20360;-89
2021/08/21 20:16:27;;;;;;;;;;;19.00;82.40;;;;;;5094391;28;19915;-88
2021/08/21 20:18:53;;;;;;;;;;;19.00;82.40;;;;;;5095589;28;19908;-89
2021/08/21 20:21:18;;;;;;;;;;;19.00;82.50;;;;;;5095521;28;19909;-88
2021/08/21 20:23:44;;;;;;;;;;;18.90;82.70;;;;;;5095797;28;19908;-88
2021/08/21 20:26:10;;;;;;;;;;;18.90;82.90;;;;;;5095487;28;20279;-88
2021/08/21 20:28:35;;;;;;;;;;;18.90;83.20;;;;;;5095366;28;19909;-90
2021/08/21 20:33:03;;;;;;;;;;;18.80;82.30;;;;;;5112989;27;19918;-88
2021/08/21 20:35:29;;;;;;;;;;;18.80;83.00;;;;;;5110820;28;20317;-88
2021/08/21 20:57:56;;;;;;;;;;;17.90;78.10;;;;;;5112931;27;20268;-87
2021/08/21 21:00:22;;;;;;;;;;;17.80;80.40;;;;;;5112356;28;19991;-87
2021/08/21 21:02:48;;;;;;;;;;;17.70;82.30;;;;;;5112556;28;19973;-87
2021/08/21 21:05:13;;;;;;;;;;;17.70;83.60;;;;;;5112000;28;19951;-88
